createdAt,value
2023-02-11T00:00:16.758Z,-4.05
2023-02-11T00:01:17.308Z,-4.05
2023-02-11T00:02:16.747Z,-4.03
2023-02-11T00:03:16.308Z,-4.06
2023-02-11T00:04:16.887Z,-4.13
2023-02-11T00:05:16.399Z,-4.12
2023-02-11T00:06:16.882Z,-4.10
2023-02-11T00:07:16.366Z,-4.12
2023-02-11T00:08:17.112Z,-4.15
2023-02-11T00:09:16.613Z,-4.19
2023-02-11T00:10:17.142Z,-4.19
2023-02-11T00:11:16.632Z,-4.15
2023-02-11T00:12:17.274Z,-4.16
2023-02-11T00:13:16.799Z,-4.16
2023-02-11T00:14:16.496Z,-4.19
2023-02-11T00:15:17.026Z,-4.22
2023-02-11T00:16:16.568Z,-4.27
2023-02-11T00:17:17.081Z,-4.23
2023-02-11T00:18:16.597Z,-4.20
2023-02-11T00:19:17.094Z,-4.20
2023-02-11T00:20:16.709Z,-4.22
2023-02-11T00:21:17.206Z,-4.22
2023-02-11T00:22:16.908Z,-4.27
2023-02-11T00:23:16.418Z,-4.27
2023-02-11T00:24:16.919Z,-4.31
2023-02-11T00:25:16.405Z,-4.30
2023-02-11T00:26:16.890Z,-4.30
2023-02-11T00:27:16.410Z,-4.26
2023-02-11T00:28:16.960Z,-4.27
2023-02-11T00:29:16.525Z,-4.22
2023-02-11T00:30:17.109Z,-4.22
2023-02-11T00:31:16.704Z,-4.20
2023-02-11T00:32:16.404Z,-4.17
2023-02-11T00:33:16.890Z,-4.17
2023-02-11T00:34:16.414Z,-4.22
2023-02-11T00:35:16.889Z,-4.31
2023-02-11T00:36:16.421Z,-4.31
2023-02-11T00:37:16.913Z,-4.31
2023-02-11T00:38:16.393Z,-4.33
2023-02-11T00:39:16.903Z,-4.33
2023-02-11T00:40:16.403Z,-4.33
2023-02-11T00:41:16.905Z,-4.31
2023-02-11T00:42:16.368Z,-4.31
2023-02-11T00:43:16.864Z,-4.34
2023-02-11T00:44:16.347Z,-4.34
2023-02-11T00:45:16.843Z,-4.40
2023-02-11T00:46:16.371Z,-4.38
2023-02-11T00:47:16.973Z,-4.37
2023-02-11T00:48:16.500Z,-4.43
2023-02-11T00:49:16.974Z,-4.43
2023-02-11T00:50:16.485Z,-4.41
2023-02-11T00:51:16.985Z,-4.38
2023-02-11T00:52:16.871Z,-4.40
2023-02-11T00:53:16.406Z,-4.43
2023-02-11T00:54:16.921Z,-4.44
2023-02-11T00:55:16.435Z,-4.43
2023-02-11T00:56:16.916Z,-4.40
2023-02-11T00:57:16.453Z,-4.38
2023-02-11T00:58:16.979Z,-4.36
2023-02-11T00:59:16.488Z,-4.34
2023-02-11T01:00:16.999Z,-4.38
2023-02-11T01:01:16.577Z,-4.40
2023-02-11T01:02:16.876Z,-4.41
2023-02-11T01:03:16.379Z,-4.45
2023-02-11T01:04:16.886Z,-4.45
2023-02-11T01:05:16.444Z,-4.43
2023-02-11T01:06:17.030Z,-4.37
2023-02-11T01:07:16.523Z,-4.40
2023-02-11T01:08:17.025Z,-4.38
2023-02-11T01:09:16.503Z,-4.40
2023-02-11T01:10:17.020Z,-4.43
2023-02-11T01:11:16.514Z,-4.43
2023-02-11T01:12:17.076Z,-4.43
2023-02-11T01:13:16.564Z,-4.43
2023-02-11T01:14:17.089Z,-4.41
2023-02-11T01:15:16.597Z,-4.40
2023-02-11T01:16:17.182Z,-4.44
2023-02-11T01:17:16.885Z,-4.44
2023-02-11T01:18:16.392Z,-4.43
2023-02-11T01:19:16.871Z,-4.41
2023-02-11T01:20:16.377Z,-4.40
2023-02-11T01:21:16.914Z,-4.40
2023-02-11T01:22:17.292Z,-4.41
2023-02-11T01:23:16.816Z,-4.41
2023-02-11T01:24:16.350Z,-4.37
2023-02-11T01:25:16.851Z,-4.36
2023-02-11T01:26:16.353Z,-4.34
2023-02-11T01:27:16.881Z,-4.31
2023-02-11T01:28:16.367Z,-4.30
2023-02-11T01:29:16.942Z,-4.19
2023-02-11T01:30:16.438Z,-4.16
2023-02-11T01:31:16.957Z,-4.17
2023-02-11T01:32:16.733Z,-4.10
2023-02-11T01:33:17.275Z,-4.10
2023-02-11T01:34:16.793Z,-4.17
2023-02-11T01:35:17.290Z,-4.16
2023-02-11T01:36:16.781Z,-4.20
2023-02-11T01:37:17.279Z,-4.27
2023-02-11T01:38:16.823Z,-4.27
2023-02-11T01:39:16.364Z,-4.25
2023-02-11T01:40:16.868Z,-4.23
2023-02-11T01:41:16.346Z,-4.23
2023-02-11T01:42:17.293Z,-4.22
2023-02-11T01:43:16.808Z,-4.22
2023-02-11T01:44:16.319Z,-4.20
2023-02-11T01:45:16.841Z,-4.20
2023-02-11T01:46:16.379Z,-4.22
2023-02-11T01:47:16.922Z,-4.25
2023-02-11T01:48:16.445Z,-4.20
2023-02-11T01:49:17.075Z,-4.20
2023-02-11T01:50:16.617Z,-4.22
2023-02-11T01:51:17.118Z,-4.22
2023-02-11T01:52:16.853Z,-4.20
2023-02-11T01:53:16.353Z,-4.08
2023-02-11T01:54:16.890Z,-4.06
2023-02-11T01:55:16.403Z,-4.12
2023-02-11T01:56:16.895Z,-4.20
2023-02-11T01:57:16.382Z,-4.27
2023-02-11T01:58:16.858Z,-4.29
2023-02-11T01:59:16.374Z,-4.29
2023-02-11T02:00:16.908Z,-4.30
2023-02-11T02:01:16.446Z,-4.31
2023-02-11T02:02:16.694Z,-4.33
2023-02-11T02:03:17.269Z,-4.30
2023-02-11T02:04:17.060Z,-4.27
2023-02-11T02:05:16.563Z,-4.26
2023-02-11T02:06:17.072Z,-4.25
2023-02-11T02:07:16.597Z,-4.23
2023-02-11T02:08:17.101Z,-4.26
2023-02-11T02:09:16.602Z,-4.31
2023-02-11T02:10:17.098Z,-4.27
2023-02-11T02:11:16.592Z,-4.20
2023-02-11T02:12:16.780Z,-4.22
2023-02-11T02:13:17.267Z,-4.22
2023-02-11T02:14:16.824Z,-4.19
2023-02-11T02:15:16.318Z,-4.23
2023-02-11T02:16:16.872Z,-4.19
2023-02-11T02:17:16.442Z,-4.09
2023-02-11T02:18:16.973Z,-4.03
2023-02-11T02:19:16.606Z,-4.02
2023-02-11T02:20:17.177Z,-4.03
2023-02-11T02:21:16.689Z,-4.03
2023-02-11T02:22:16.903Z,-4.03
2023-02-11T02:23:16.409Z,-4.08
2023-02-11T02:24:16.917Z,-4.10
2023-02-11T02:25:16.416Z,-4.12
2023-02-11T02:26:16.893Z,-4.10
2023-02-11T02:27:16.385Z,-4.10
2023-02-11T02:28:16.966Z,-4.06
2023-02-11T02:29:16.519Z,-4.06
2023-02-11T02:30:17.027Z,-4.08
2023-02-11T02:31:16.536Z,-4.03
2023-02-11T02:32:16.988Z,-4.05
2023-02-11T02:33:22.213Z,-4.03
2023-02-11T02:34:16.690Z,-4.02
2023-02-11T02:35:17.241Z,-4.02
2023-02-11T02:36:16.733Z,-4.03
2023-02-11T02:37:17.220Z,-4.02
2023-02-11T02:38:16.722Z,-4.02
2023-02-11T02:39:17.262Z,-4.05
2023-02-11T02:40:16.737Z,-4.08
2023-02-11T02:41:17.228Z,-4.03
2023-02-11T02:42:16.600Z,-3.99
2023-02-11T02:43:17.130Z,-3.95
2023-02-11T02:44:16.669Z,-3.92
2023-02-11T02:45:17.196Z,-4.05
2023-02-11T02:46:16.715Z,-4.05
2023-02-11T02:47:16.322Z,-4.02
2023-02-11T02:48:16.822Z,-4.02
2023-02-11T02:49:16.320Z,-3.99
2023-02-11T02:50:16.863Z,-3.98
2023-02-11T02:51:16.369Z,-4.02
2023-02-11T02:52:16.637Z,-3.99
2023-02-11T02:53:17.160Z,-3.99
2023-02-11T02:54:16.688Z,-3.99
2023-02-11T02:55:17.207Z,-3.95
2023-02-11T02:56:16.715Z,-3.94
2023-02-11T02:57:17.207Z,-3.88
2023-02-11T02:58:16.702Z,-3.84
2023-02-11T02:59:17.326Z,-3.81
2023-02-11T03:00:16.828Z,-3.81
2023-02-11T03:01:16.537Z,-3.75
2023-02-11T03:02:17.150Z,-3.72
2023-02-11T03:03:16.650Z,-3.72
2023-02-11T03:04:17.170Z,-3.70
2023-02-11T03:05:16.704Z,-3.65
2023-02-11T03:06:17.206Z,-3.63
2023-02-11T03:07:16.709Z,-3.63
2023-02-11T03:08:17.182Z,-3.57
2023-02-11T03:09:16.671Z,-3.57
2023-02-11T03:10:17.147Z,-3.55
2023-02-11T03:11:16.661Z,-3.50
2023-02-11T03:12:17.277Z,-3.48
2023-02-11T03:13:16.773Z,-3.47
2023-02-11T03:14:17.298Z,-3.44
2023-02-11T03:15:16.815Z,-3.50
2023-02-11T03:16:17.341Z,-3.48
2023-02-11T03:17:16.974Z,-3.47
2023-02-11T03:18:16.458Z,-3.47
2023-02-11T03:19:16.970Z,-3.44
2023-02-11T03:20:16.463Z,-3.41
2023-02-11T03:21:16.992Z,-3.40
2023-02-11T03:22:16.334Z,-3.41
2023-02-11T03:23:16.815Z,-3.37
2023-02-11T03:24:17.325Z,-3.32
2023-02-11T03:25:16.822Z,-3.22
2023-02-11T03:26:16.324Z,-3.12
2023-02-11T03:27:16.843Z,-3.05
2023-02-11T03:28:16.351Z,-2.92
2023-02-11T03:29:16.891Z,-2.90
2023-02-11T03:30:16.400Z,-2.90
2023-02-11T03:31:16.965Z,-2.95
2023-02-11T03:32:16.718Z,-2.99
2023-02-11T03:33:16.500Z,-2.97
2023-02-11T03:34:17.036Z,-2.97
2023-02-11T03:35:16.569Z,-3.01
2023-02-11T03:36:17.058Z,-2.99
2023-02-11T03:37:16.552Z,-2.98
2023-02-11T03:38:17.035Z,-2.95
2023-02-11T03:39:16.555Z,-2.95
2023-02-11T03:40:17.252Z,-2.94
2023-02-11T03:41:16.796Z,-2.90
2023-02-11T03:42:16.703Z,-2.87
2023-02-11T03:43:17.191Z,-2.82
2023-02-11T03:44:16.707Z,-2.81
2023-02-11T03:45:17.234Z,-2.82
2023-02-11T03:46:16.857Z,-2.76
2023-02-11T03:47:16.571Z,-2.76
2023-02-11T03:48:17.078Z,-2.73
2023-02-11T03:49:16.560Z,-2.67
2023-02-11T03:50:17.085Z,-2.64
2023-02-11T03:51:16.580Z,-2.63
2023-02-11T03:52:17.184Z,-2.60
2023-02-11T03:53:16.692Z,-2.52
2023-02-11T03:54:17.280Z,-2.52
2023-02-11T03:55:16.766Z,-2.62
2023-02-11T03:56:17.262Z,-2.62
2023-02-11T03:57:16.762Z,-2.57
2023-02-11T03:58:17.260Z,-2.59
2023-02-11T03:59:16.864Z,-2.56
2023-02-11T04:00:16.381Z,-2.53
2023-02-11T04:01:16.945Z,-2.56
2023-02-11T04:02:16.701Z,-2.53
2023-02-11T04:03:17.284Z,-2.52
2023-02-11T04:04:16.988Z,-2.49
2023-02-11T04:05:16.489Z,-2.49
2023-02-11T04:06:17.001Z,-2.48
2023-02-11T04:07:16.490Z,-2.46
2023-02-11T04:08:16.969Z,-2.46
2023-02-11T04:09:16.468Z,-2.49
2023-02-11T04:10:16.976Z,-2.46
2023-02-11T04:11:16.465Z,-2.46
2023-02-11T04:12:16.918Z,-2.48
2023-02-11T04:13:16.420Z,-2.50
2023-02-11T04:14:16.925Z,-2.49
2023-02-11T04:15:16.466Z,-2.49
2023-02-11T04:16:17.012Z,-2.49
2023-02-11T04:17:16.636Z,-2.49
2023-02-11T04:18:17.145Z,-2.49
2023-02-11T04:19:16.647Z,-2.43
2023-02-11T04:20:17.173Z,-2.39
2023-02-11T04:21:16.726Z,-2.36
2023-02-11T04:22:16.484Z,-2.35
2023-02-11T04:23:16.960Z,-2.32
2023-02-11T04:24:16.468Z,-2.31
2023-02-11T04:25:16.993Z,-2.28
2023-02-11T04:26:16.512Z,-2.22
2023-02-11T04:27:17.036Z,-2.29
2023-02-11T04:28:16.552Z,-2.25
2023-02-11T04:29:17.144Z,-2.23
2023-02-11T04:30:16.687Z,-2.19
2023-02-11T04:31:17.353Z,-2.18
2023-02-11T04:32:16.734Z,-2.17
2023-02-11T04:33:17.243Z,-2.09
2023-02-11T04:34:16.722Z,-2.05
2023-02-11T04:35:17.220Z,-2.05
2023-02-11T04:36:16.712Z,-2.02
2023-02-11T04:37:17.205Z,-1.98
2023-02-11T04:38:16.686Z,-2.01
2023-02-11T04:39:17.223Z,-2.17
2023-02-11T04:40:16.802Z,-2.21
2023-02-11T04:41:16.312Z,-2.21
2023-02-11T04:42:16.994Z,-2.22
2023-02-11T04:43:16.498Z,-2.18
2023-02-11T04:44:17.001Z,-2.19
2023-02-11T04:45:16.492Z,-2.22
2023-02-11T04:46:17.048Z,-2.23
2023-02-11T04:47:16.688Z,-2.22
2023-02-11T04:48:17.186Z,-2.22
2023-02-11T04:49:16.712Z,-2.21
2023-02-11T04:50:17.272Z,-2.17
2023-02-11T04:51:16.772Z,-2.14
2023-02-11T04:52:16.378Z,-2.09
2023-02-11T04:53:16.902Z,-2.14
2023-02-11T04:54:16.430Z,-2.12
2023-02-11T04:55:16.971Z,-2.12
2023-02-11T04:56:16.478Z,-2.08
2023-02-11T04:57:17.035Z,-2.07
2023-02-11T04:58:16.521Z,-2.05
2023-02-11T04:59:17.015Z,-2.07
2023-02-11T05:00:16.514Z,-2.08
2023-02-11T05:01:17.052Z,-2.08
2023-02-11T05:02:16.332Z,-2.08
2023-02-11T05:03:16.837Z,-2.04
2023-02-11T05:04:16.355Z,-2.01
2023-02-11T05:05:16.956Z,-2.00
2023-02-11T05:06:16.439Z,-1.95
2023-02-11T05:07:16.986Z,-1.95
2023-02-11T05:08:16.505Z,-1.98
2023-02-11T05:09:17.010Z,-2.01
2023-02-11T05:10:16.529Z,-1.98
2023-02-11T05:11:17.028Z,-2.00
2023-02-11T05:12:16.378Z,-2.01
2023-02-11T05:13:16.980Z,-2.00
2023-02-11T05:14:16.474Z,-2.01
2023-02-11T05:15:16.977Z,-2.00
2023-02-11T05:16:16.492Z,-1.98
2023-02-11T05:17:17.055Z,-1.95
2023-02-11T05:18:16.545Z,-1.95
2023-02-11T05:19:17.031Z,-1.95
2023-02-11T05:20:16.561Z,-1.94
2023-02-11T05:21:17.042Z,-1.91
2023-02-11T05:22:17.211Z,-1.92
2023-02-11T05:23:16.751Z,-1.90
2023-02-11T05:24:17.256Z,-1.90
2023-02-11T05:25:16.747Z,-1.87
2023-02-11T05:26:16.318Z,-1.84
2023-02-11T05:27:16.866Z,-1.81
2023-02-11T05:28:16.396Z,-1.80
2023-02-11T05:29:17.004Z,-1.79
2023-02-11T05:30:16.501Z,-1.76
2023-02-11T05:31:17.053Z,-1.70
2023-02-11T05:32:16.478Z,-1.67
2023-02-11T05:33:16.977Z,-1.62
2023-02-11T05:34:16.491Z,-1.63
2023-02-11T05:35:16.988Z,-1.66
2023-02-11T05:36:16.488Z,-1.69
2023-02-11T05:37:17.048Z,-1.69
2023-02-11T05:38:16.615Z,-1.64
2023-02-11T05:39:17.086Z,-1.63
2023-02-11T05:40:16.596Z,-1.66
2023-02-11T05:41:17.134Z,-1.63
2023-02-11T05:42:16.749Z,-1.59
2023-02-11T05:43:17.263Z,-1.60
2023-02-11T05:44:16.792Z,-1.63
2023-02-11T05:45:17.299Z,-1.59
2023-02-11T05:46:16.851Z,-1.56
2023-02-11T05:47:16.386Z,-1.44
2023-02-11T05:48:16.864Z,-1.36
2023-02-11T05:49:16.748Z,-1.29
2023-02-11T05:50:17.263Z,-1.29
2023-02-11T05:51:16.773Z,-1.28
2023-02-11T05:52:16.888Z,-1.27
2023-02-11T05:53:16.388Z,-1.24
2023-02-11T05:54:16.329Z,-1.24
2023-02-11T05:55:16.812Z,-1.21
2023-02-11T05:56:16.329Z,-1.23
2023-02-11T05:57:16.828Z,-1.20
2023-02-11T05:58:16.337Z,-1.07
2023-02-11T05:59:16.841Z,-1.04
2023-02-11T06:00:16.328Z,-1.08
2023-02-11T06:01:16.817Z,-1.11
2023-02-11T06:02:16.433Z,-1.14
2023-02-11T06:03:17.010Z,-1.16
2023-02-11T06:04:16.572Z,-1.21
2023-02-11T06:05:17.077Z,-1.21
2023-02-11T06:06:16.594Z,-1.20
2023-02-11T06:07:17.083Z,-1.24
2023-02-11T06:08:16.570Z,-1.27
2023-02-11T06:09:17.065Z,-1.31
2023-02-11T06:10:16.596Z,-1.34
2023-02-11T06:11:17.095Z,-1.38
2023-02-11T06:12:16.912Z,-1.41
2023-02-11T06:13:16.415Z,-1.45
2023-02-11T06:14:16.887Z,-1.52
2023-02-11T06:15:16.381Z,-1.58
2023-02-11T06:16:16.945Z,-1.63
2023-02-11T06:17:16.512Z,-1.64
2023-02-11T06:18:17.005Z,-1.64
2023-02-11T06:19:16.498Z,-1.63
2023-02-11T06:20:17.050Z,-1.64
2023-02-11T06:21:16.554Z,-1.63
2023-02-11T06:22:16.808Z,-1.66
2023-02-11T06:23:16.321Z,-1.70
2023-02-11T06:24:24.649Z,-1.77
2023-02-11T06:25:17.180Z,-1.79
2023-02-11T06:26:16.671Z,-1.83
2023-02-11T06:27:17.180Z,-1.84
2023-02-11T06:28:16.729Z,-1.87
2023-02-11T06:29:16.346Z,-1.88
2023-02-11T06:30:16.839Z,-1.91
2023-02-11T06:31:16.504Z,-1.90
2023-02-11T06:32:37.233Z,-1.91
2023-02-11T06:33:16.396Z,-1.91
2023-02-11T06:34:16.885Z,-1.91
2023-02-11T06:35:16.389Z,-1.97
2023-02-11T06:36:16.885Z,-1.98
2023-02-11T06:37:16.371Z,-2.04
2023-02-11T06:38:16.875Z,-2.09
2023-02-11T06:39:16.375Z,-2.09
2023-02-11T06:40:16.871Z,-2.12
2023-02-11T06:41:16.536Z,-2.15
2023-02-11T06:42:17.096Z,-2.15
2023-02-11T06:43:16.592Z,-2.17
2023-02-11T06:44:17.078Z,-2.22
2023-02-11T06:45:16.565Z,-2.25
2023-02-11T06:46:17.121Z,-2.28
2023-02-11T06:47:16.696Z,-2.26
2023-02-11T06:48:17.207Z,-2.28
2023-02-11T06:49:16.699Z,-2.18
2023-02-11T06:50:17.203Z,-2.15
2023-02-11T06:51:16.718Z,-2.14
2023-02-11T06:52:16.841Z,-2.14
2023-02-11T06:53:16.336Z,-2.18
2023-02-11T06:54:16.811Z,-2.22
2023-02-11T06:55:17.305Z,-2.28
2023-02-11T06:56:16.779Z,-2.34
2023-02-11T06:57:17.290Z,-2.34
2023-02-11T06:58:16.769Z,-2.34
2023-02-11T06:59:17.299Z,-2.31
2023-02-11T07:00:16.850Z,-2.28
2023-02-11T07:01:16.335Z,-2.23
2023-02-11T07:02:19.066Z,-2.19
2023-02-11T07:03:16.552Z,-2.12
2023-02-11T07:04:17.295Z,-2.12
2023-02-11T07:05:16.798Z,-2.09
2023-02-11T07:06:16.342Z,-2.08
2023-02-11T07:07:16.833Z,-2.09
2023-02-11T07:08:16.329Z,-2.14
2023-02-11T07:09:16.843Z,-2.12
2023-02-11T07:10:16.363Z,-2.08
2023-02-11T07:11:16.879Z,-2.07
2023-02-11T07:12:16.691Z,-2.04
2023-02-11T07:13:17.183Z,-2.02
2023-02-11T07:14:16.747Z,-1.98
2023-02-11T07:15:17.268Z,-1.91
2023-02-11T07:16:16.847Z,-1.83
2023-02-11T07:17:16.505Z,-1.74
2023-02-11T07:18:17.025Z,-1.72
2023-02-11T07:19:16.547Z,-1.63
2023-02-11T07:20:17.051Z,-1.56
2023-02-11T07:21:16.529Z,-1.53
2023-02-11T07:22:17.077Z,-1.46
2023-02-11T07:23:16.578Z,-1.38
2023-02-11T07:24:17.068Z,-1.34
2023-02-11T07:25:16.576Z,-1.25
2023-02-11T07:26:17.068Z,-1.20
2023-02-11T07:27:16.556Z,-1.14
2023-02-11T07:28:17.312Z,-1.13
2023-02-11T07:29:16.873Z,-1.10
2023-02-11T07:30:16.369Z,-1.07
2023-02-11T07:31:16.954Z,-1.04
2023-02-11T07:32:16.497Z,-0.97
2023-02-11T07:33:17.069Z,-0.91
2023-02-11T07:34:16.647Z,-0.86
2023-02-11T07:35:17.138Z,-0.80
2023-02-11T07:36:16.609Z,-0.69
2023-02-11T07:37:17.140Z,-0.62
2023-02-11T07:38:16.638Z,-0.61
2023-02-11T07:39:17.182Z,-0.59
2023-02-11T07:40:16.716Z,-0.51
2023-02-11T07:41:17.198Z,-0.45
2023-02-11T07:42:16.841Z,-0.41
2023-02-11T07:43:16.341Z,-0.35
2023-02-11T07:44:16.821Z,-0.24
2023-02-11T07:45:16.319Z,-0.20
2023-02-11T07:46:16.836Z,-0.10
2023-02-11T07:47:16.395Z,-0.02
2023-02-11T07:48:16.893Z,0.01
2023-02-11T07:49:16.404Z,0.05
2023-02-11T07:50:16.939Z,0.10
2023-02-11T07:51:16.425Z,0.10
2023-02-11T07:52:16.946Z,0.11
2023-02-11T07:53:16.436Z,0.02
2023-02-11T07:54:16.963Z,0.05
2023-02-11T07:55:16.464Z,0.07
2023-02-11T07:56:16.954Z,0.05
2023-02-11T07:57:16.491Z,-0.02
2023-02-11T07:58:17.034Z,-0.02
2023-02-11T07:59:16.514Z,0.07
2023-02-11T08:00:18.836Z,0.15
2023-02-11T08:01:16.793Z,0.35
2023-02-11T08:02:16.505Z,0.36
2023-02-11T08:03:17.135Z,0.36
2023-02-11T08:04:16.621Z,0.32
2023-02-11T08:05:17.113Z,0.29
2023-02-11T08:06:16.634Z,0.25
2023-02-11T08:07:17.123Z,0.18
2023-02-11T08:08:16.622Z,0.18
2023-02-11T08:09:17.102Z,0.18
2023-02-11T08:10:16.594Z,0.18
2023-02-11T08:11:17.145Z,0.18
2023-02-11T08:12:16.645Z,0.15
2023-02-11T08:13:17.146Z,0.21
2023-02-11T08:14:16.643Z,0.25
2023-02-11T08:15:17.143Z,0.22
2023-02-11T08:16:16.697Z,0.28
2023-02-11T08:17:16.353Z,0.34
2023-02-11T08:18:16.855Z,0.39
2023-02-11T08:19:16.343Z,0.42
2023-02-11T08:20:16.854Z,0.53
2023-02-11T08:21:16.349Z,0.55
2023-02-11T08:22:16.793Z,0.59
2023-02-11T08:23:17.267Z,0.59
2023-02-11T08:24:16.761Z,0.60
2023-02-11T08:25:17.287Z,0.63
2023-02-11T08:26:16.865Z,0.57
2023-02-11T08:27:16.381Z,0.55
2023-02-11T08:28:16.947Z,0.55
2023-02-11T08:29:16.549Z,0.60
2023-02-11T08:30:17.037Z,0.70
2023-02-11T08:31:16.633Z,0.83
2023-02-11T08:32:17.162Z,0.85
2023-02-11T08:33:16.684Z,0.97
2023-02-11T08:34:17.225Z,0.98
2023-02-11T08:35:16.755Z,1.01
2023-02-11T08:36:17.243Z,0.98
2023-02-11T08:37:16.735Z,0.98
2023-02-11T08:38:17.215Z,0.94
2023-02-11T08:39:19.499Z,0.94
2023-02-11T08:40:17.179Z,0.95
2023-02-11T08:41:16.707Z,1.02
2023-02-11T08:42:17.043Z,1.02
2023-02-11T08:43:16.567Z,1.11
2023-02-11T08:44:17.137Z,1.25
2023-02-11T08:45:16.708Z,1.33
2023-02-11T08:46:17.341Z,1.35
2023-02-11T08:47:17.123Z,1.43
2023-02-11T08:48:16.624Z,1.36
2023-02-11T08:49:17.127Z,1.42
2023-02-11T08:50:16.713Z,1.40
2023-02-11T08:51:17.206Z,1.50
2023-02-11T08:52:16.810Z,1.53
2023-02-11T08:53:16.333Z,1.61
2023-02-11T08:54:16.869Z,1.71
2023-02-11T08:55:16.411Z,1.77
2023-02-11T08:56:16.906Z,1.75
2023-02-11T08:57:16.486Z,1.84
2023-02-11T08:58:18.806Z,1.95
2023-02-11T08:59:16.721Z,1.98
2023-02-11T09:00:17.232Z,2.09
2023-02-11T09:01:16.807Z,2.25
2023-02-11T09:02:16.367Z,2.30
2023-02-11T09:03:16.978Z,2.42
2023-02-11T09:04:16.494Z,2.47
2023-02-11T09:05:16.990Z,2.59
2023-02-11T09:06:16.560Z,2.64
2023-02-11T09:07:17.031Z,2.75
2023-02-11T09:08:16.524Z,2.84
2023-02-11T09:09:17.106Z,2.88
2023-02-11T09:10:16.600Z,2.91
2023-02-11T09:11:17.116Z,2.81
2023-02-11T09:12:16.553Z,2.81
2023-02-11T09:13:17.053Z,2.82
2023-02-11T09:14:16.587Z,2.98
2023-02-11T09:15:17.112Z,3.15
2023-02-11T09:16:16.667Z,3.16
2023-02-11T09:17:17.228Z,3.24
2023-02-11T09:18:16.759Z,3.41
2023-02-11T09:19:17.307Z,3.41
2023-02-11T09:20:16.799Z,3.16
2023-02-11T09:21:17.283Z,3.09
2023-02-11T09:22:16.396Z,3.15
2023-02-11T09:23:18.561Z,3.24
2023-02-11T09:24:17.117Z,3.34
2023-02-11T09:25:16.617Z,3.36
2023-02-11T09:26:17.155Z,3.47
2023-02-11T09:27:16.645Z,3.68
2023-02-11T09:28:17.152Z,3.83
2023-02-11T09:29:16.686Z,3.92
2023-02-11T09:30:17.183Z,4.07
2023-02-11T09:31:16.774Z,4.16
2023-02-11T09:32:16.554Z,4.21
2023-02-11T09:33:17.245Z,4.21
2023-02-11T09:34:16.773Z,4.28
2023-02-11T09:35:17.310Z,4.35
2023-02-11T09:36:16.803Z,4.44
2023-02-11T09:37:17.331Z,4.48
2023-02-11T09:38:16.900Z,4.44
2023-02-11T09:39:16.404Z,4.50
2023-02-11T09:40:16.929Z,4.58
2023-02-11T09:41:16.454Z,4.51
2023-02-11T09:42:16.671Z,4.58
2023-02-11T09:43:17.174Z,4.58
2023-02-11T09:44:16.678Z,4.69
2023-02-11T09:45:17.210Z,4.79
2023-02-11T09:46:16.815Z,4.86
2023-02-11T09:47:16.404Z,4.96
2023-02-11T09:48:16.898Z,4.80
2023-02-11T09:49:16.416Z,4.76
2023-02-11T09:50:16.920Z,4.62
2023-02-11T09:51:16.403Z,4.61
2023-02-11T09:52:16.868Z,4.55
2023-02-11T09:53:16.374Z,4.61
2023-02-11T09:54:16.878Z,4.62
2023-02-11T09:55:16.382Z,4.59
2023-02-11T09:56:16.894Z,4.64
2023-02-11T09:57:27.836Z,4.50
2023-02-11T09:58:16.710Z,4.65
2023-02-11T09:59:17.215Z,4.73
2023-02-11T10:00:16.738Z,4.78
2023-02-11T10:01:19.393Z,4.76
2023-02-11T10:02:16.851Z,4.82
2023-02-11T10:03:16.364Z,4.82
2023-02-11T10:04:16.898Z,4.95
2023-02-11T10:05:16.541Z,5.02
2023-02-11T10:06:17.062Z,5.00
2023-02-11T10:07:16.545Z,5.02
2023-02-11T10:08:17.191Z,4.92
2023-02-11T10:09:16.712Z,4.92
2023-02-11T10:10:17.190Z,4.80
2023-02-11T10:11:29.784Z,4.83
2023-02-11T10:12:16.558Z,4.85
2023-02-11T10:13:17.103Z,4.75
2023-02-11T10:14:16.622Z,4.73
2023-02-11T10:15:17.113Z,4.78
2023-02-11T10:16:16.697Z,4.83
2023-02-11T10:17:16.344Z,4.99
2023-02-11T10:18:16.871Z,5.15
2023-02-11T10:19:16.385Z,5.23
2023-02-11T10:20:17.201Z,5.27
2023-02-11T10:21:16.760Z,5.39
2023-02-11T10:22:16.888Z,5.49
2023-02-11T10:23:16.415Z,5.58
2023-02-11T10:24:16.911Z,5.76
2023-02-11T10:25:16.436Z,5.82
2023-02-11T10:26:16.945Z,5.90
2023-02-11T10:27:16.444Z,5.59
2023-02-11T10:28:17.057Z,5.65
2023-02-11T10:29:16.751Z,5.79
2023-02-11T10:30:17.234Z,5.87
2023-02-11T10:31:16.813Z,5.92
2023-02-11T10:32:16.433Z,6.00
2023-02-11T10:33:16.964Z,6.10
2023-02-11T10:34:16.483Z,5.92
2023-02-11T10:35:17.021Z,5.73
2023-02-11T10:36:16.510Z,5.72
2023-02-11T10:37:17.031Z,5.75
2023-02-11T10:38:16.531Z,5.62
2023-02-11T10:39:17.034Z,5.59
2023-02-11T10:40:16.513Z,5.79
2023-02-11T10:41:16.994Z,6.01
2023-02-11T10:42:16.602Z,6.08
2023-02-11T10:43:17.140Z,6.04
2023-02-11T10:44:16.634Z,6.04
2023-02-11T10:45:17.141Z,5.97
2023-02-11T10:46:16.668Z,5.96
2023-02-11T10:47:17.261Z,6.01
2023-02-11T10:48:16.762Z,5.94
2023-02-11T10:49:17.324Z,6.04
2023-02-11T10:50:16.819Z,6.12
2023-02-11T10:51:16.311Z,6.15
2023-02-11T10:52:16.830Z,6.14
2023-02-11T10:53:16.353Z,5.94
2023-02-11T10:54:16.852Z,5.97
2023-02-11T10:55:16.348Z,6.05
2023-02-11T10:56:16.858Z,5.98
2023-02-11T10:57:16.322Z,5.92
2023-02-11T10:58:16.834Z,5.86
2023-02-11T10:59:16.326Z,5.79
2023-02-11T11:00:16.868Z,5.82
2023-02-11T11:01:24.189Z,5.73
2023-02-11T11:02:16.834Z,5.68
2023-02-11T11:03:16.360Z,5.61
2023-02-11T11:04:16.915Z,5.75
2023-02-11T11:05:16.455Z,5.75
2023-02-11T11:06:16.999Z,5.87
2023-02-11T11:07:16.499Z,5.79
2023-02-11T11:08:16.990Z,5.75
2023-02-11T11:09:16.464Z,5.70
2023-02-11T11:10:17.013Z,5.73
2023-02-11T11:11:16.600Z,5.65
2023-02-11T11:12:17.306Z,5.63
2023-02-11T11:13:16.801Z,5.62
2023-02-11T11:14:17.322Z,5.76
2023-02-11T11:15:16.879Z,5.87
2023-02-11T11:16:16.457Z,5.86
2023-02-11T11:17:17.048Z,5.86
2023-02-11T11:18:21.197Z,6.00
2023-02-11T11:19:16.625Z,6.00
2023-02-11T11:20:17.154Z,5.75
2023-02-11T11:21:16.796Z,5.79
2023-02-11T11:22:17.047Z,5.85
2023-02-11T11:23:16.566Z,5.89
2023-02-11T11:24:17.122Z,5.93
2023-02-11T11:25:16.656Z,6.00
2023-02-11T11:26:17.220Z,6.18
2023-02-11T11:27:16.715Z,5.97
2023-02-11T11:28:17.212Z,5.87
2023-02-11T11:29:16.799Z,5.96
2023-02-11T11:30:17.374Z,6.01
2023-02-11T11:31:17.004Z,6.03
2023-02-11T11:32:19.502Z,6.00
2023-02-11T11:33:17.140Z,5.98
2023-02-11T11:34:16.621Z,5.75
2023-02-11T11:35:17.114Z,5.79
2023-02-11T11:36:16.613Z,5.77
2023-02-11T11:37:17.141Z,5.73
2023-02-11T11:38:16.616Z,5.73
2023-02-11T11:39:17.167Z,5.65
2023-02-11T11:40:16.821Z,5.58
2023-02-11T11:41:16.387Z,5.61
2023-02-11T11:42:16.746Z,5.59
2023-02-11T11:43:17.267Z,5.53
2023-02-11T11:44:16.766Z,5.51
2023-02-11T11:45:17.277Z,5.59
2023-02-11T11:46:16.815Z,5.48
2023-02-11T11:47:16.434Z,5.53
2023-02-11T11:48:16.940Z,5.62
2023-02-11T11:49:16.440Z,5.65
2023-02-11T11:50:18.505Z,5.58
2023-02-11T11:51:16.536Z,5.63
2023-02-11T11:52:17.262Z,5.62
2023-02-11T11:53:16.767Z,5.61
2023-02-11T11:54:17.434Z,5.68
2023-02-11T11:55:16.957Z,5.65
2023-02-11T11:56:16.473Z,5.68
2023-02-11T11:57:16.977Z,5.86
2023-02-11T11:58:16.537Z,5.93
2023-02-11T11:59:17.057Z,6.01
2023-02-11T12:00:16.622Z,6.05
2023-02-11T12:01:17.154Z,6.03
2023-02-11T12:02:16.865Z,6.04
2023-02-11T12:03:16.542Z,6.12
2023-02-11T12:04:17.105Z,6.11
2023-02-11T12:05:16.604Z,6.17
2023-02-11T12:06:17.094Z,6.22
2023-02-11T12:07:16.594Z,6.21
2023-02-11T12:08:17.138Z,6.14
2023-02-11T12:09:16.666Z,6.24
2023-02-11T12:10:17.188Z,6.32
2023-02-11T12:11:16.720Z,6.35
2023-02-11T12:12:17.224Z,6.25
2023-02-11T12:13:16.741Z,6.14
2023-02-11T12:14:17.266Z,6.20
2023-02-11T12:15:16.776Z,6.12
2023-02-11T12:16:17.331Z,6.10
2023-02-11T12:17:16.941Z,6.04
2023-02-11T12:18:16.445Z,6.10
2023-02-11T12:19:16.964Z,6.03
2023-02-11T12:20:16.475Z,6.05
2023-02-11T12:21:16.965Z,6.11
2023-02-11T12:22:16.561Z,6.03
2023-02-11T12:23:17.057Z,5.94
2023-02-11T12:24:17.450Z,5.77
2023-02-11T12:25:17.141Z,5.79
2023-02-11T12:26:16.623Z,5.80
2023-02-11T12:27:17.149Z,5.70
2023-02-11T12:28:16.704Z,5.58
2023-02-11T12:29:17.351Z,5.61
2023-02-11T12:30:16.932Z,5.53
2023-02-11T12:31:16.531Z,5.58
2023-02-11T12:32:16.999Z,5.57
2023-02-11T12:33:16.580Z,5.63
2023-02-11T12:34:17.062Z,5.53
2023-02-11T12:35:16.562Z,5.57
2023-02-11T12:36:17.067Z,5.55
2023-02-11T12:37:16.559Z,5.55
2023-02-11T12:38:17.057Z,5.52
2023-02-11T12:39:16.686Z,5.55
2023-02-11T12:40:16.494Z,5.53
2023-02-11T12:41:17.022Z,5.65
2023-02-11T12:42:16.816Z,5.68
2023-02-11T12:43:16.362Z,5.68
2023-02-11T12:44:17.044Z,5.77
2023-02-11T12:45:16.568Z,5.77
2023-02-11T12:46:17.170Z,5.79
2023-02-11T12:47:16.889Z,5.72
2023-02-11T12:48:16.412Z,5.73
2023-02-11T12:49:16.931Z,5.68
2023-02-11T12:50:16.414Z,5.66
2023-02-11T12:51:16.925Z,5.68
2023-02-11T12:52:16.350Z,5.69
2023-02-11T12:53:16.842Z,5.89
2023-02-11T12:54:16.358Z,5.86
2023-02-11T12:55:16.888Z,5.75
2023-02-11T12:56:16.412Z,5.72
2023-02-11T12:57:16.907Z,5.75
2023-02-11T12:58:16.412Z,5.76
2023-02-11T12:59:16.916Z,5.77
2023-02-11T13:00:16.438Z,5.82
2023-02-11T13:01:16.962Z,5.82
2023-02-11T13:02:16.790Z,5.90